Home > Products > Valid Products > MTR

000
SAUS46 KSGX 301753
MTRCZZ
METAR KCZZ 301752Z AUTO 15006KT 23/M01 A3003 RMK AO1 SLP146
T02331011 10239 20072 50002





000
SAUS46 KSGX 301752
MTRSAN
METAR KSAN 301751Z 22003KT 10SM BKN240 22/06 A3001 RMK AO2 SLP161
T02170061 10222 20161 50005





000
SAUS46 KSGX 301653
MTRCZZ
METAR KCZZ 301652Z AUTO 11008KT 23/M01 A3004 RMK AO1 SLP148
T02331011





000
SAUS46 KSGX 301653
MTRCZZ
METAR KCZZ 301652Z AUTO 11008KT 23/M01 A3004 RMK AO1 SLP148
T02331011





000
SAUS46 KSGX 301652
MTRSAN
METAR KSAN 301651Z 00000KT 8SM BKN240 21/12 A3001 RMK AO2 SLP162
T02060122





000
SAUS46 KSGX 301652
MTRSAN
METAR KSAN 301651Z 00000KT 8SM BKN240 21/12 A3001 RMK AO2 SLP162
T02060122





000
SAUS46 KSGX 301553
MTRCZZ
METAR KCZZ 301552Z AUTO 06003KT 17/M02 A3004 RMK AO1 SLP151
T01721022





000
SAUS46 KSGX 301552
MTRSAN
METAR KSAN 301551Z 00000KT 10SM FEW007 BKN200 19/12 A3001 RMK AO2
SLP160 T01940117





000
SAUS46 KSGX 301453
MTRCZZ
METAR KCZZ 301452Z AUTO 04003KT 10/M03 A3003 RMK AO1 SLP152
T01001028 53004





000
SAUS46 KSGX 301452
MTRSAN
METAR KSAN 301451Z 12004KT 9SM FEW004 BKN200 17/13 A3000 RMK AO2
SLP157 T01720128 53005 $





000
SAUS46 KSGX 301353
MTRCZZ
METAR KCZZ 301352Z AUTO 03005KT 08/M03 A3002 RMK AO1 SLP146
T00781028





000
SAUS46 KSGX 301352
MTRSAN
METAR KSAN 301351Z 00000KT 7SM SCT004 BKN200 17/14 A2999 RMK AO2
SLP153 T01670139 $





000
SAUS46 KSGX 301307
MTRSAN
SPECI KSAN 301306Z 36003KT 4SM BR SCT004 17/15 A2999 RMK AO2





000
SAUS46 KSGX 301253
MTRCZZ
METAR KCZZ 301252Z AUTO 07006KT 11/M03 A3001 RMK AO1 SLP136
T01111033





000
SAUS46 KSGX 301252
MTRSAN
METAR KSAN 301251Z 00000KT 3SM BR BKN004 17/15 A2999 RMK AO2 SLP154
T01670150





000
SAUS46 KSGX 301241
MTRSAN
SPECI KSAN 301239Z 35004KT 2SM BR BKN004 17/16 A2998 RMK AO2





000
SAUS46 KSGX 301204
MTRSAN
SPECI KSAN 301203Z 05004KT 5SM BR BKN004 18/16 A2998 RMK AO2





000
SAUS46 KSGX 301153
MTRCZZ
METAR KCZZ 301152Z AUTO 05007KT 08/M04 A3001 RMK AO1 SLP138
T00831044 10094 20044 56004





000
SAUS46 KSGX 301152
MTRSAN
METAR KSAN 301151Z 05004KT 6SM BR BKN006 18/16 A2998 RMK AO2 SLP152
T01780156 10200 20172 56005





000
SAUS46 KSGX 301141
MTRSAN
SPECI KSAN 301140Z 04004KT 7SM BKN006 18/15 A2998 RMK AO2





000
SAUS46 KSGX 301124
MTRSAN
SPECI KSAN 301123Z 03003KT 7SM SCT008 18/14 A2998 RMK AO2





000
SAUS46 KSGX 301053
MTRCZZ
METAR KCZZ 301052Z AUTO 02004KT 06/M04 A3001 RMK AO1 SLP140
T00561044





000
SAUS46 KSGX 301053
MTRCZZ
METAR KCZZ 301052Z AUTO 02004KT 06/M04 A3001 RMK AO1 SLP140
T00561044





000
SAUS46 KSGX 301052
MTRSAN
METAR KSAN 301051Z 00000KT 8SM OVC008 17/14 A2998 RMK AO2 SLP153
T01720139





000
SAUS46 KSGX 301052
MTRSAN
METAR KSAN 301051Z 00000KT 8SM OVC008 17/14 A2998 RMK AO2 SLP153
T01720139





000
SAUS46 KSGX 301035
MTRSAN
SPECI KSAN 301034Z 00000KT 7SM BKN008 17/14 A2999 RMK AO2





000
SAUS46 KSGX 301035
MTRSAN
SPECI KSAN 301034Z 00000KT 7SM BKN008 17/14 A2999 RMK AO2





000
SAUS46 KSGX 300953
MTRCZZ
METAR KCZZ 300952Z AUTO 04005KT 08/M04 A3001 RMK AO1 SLP137
T00781044





000
SAUS46 KSGX 300952
MTRSAN
METAR KSAN 300951Z 00000KT 7SM SCT007 17/14 A2999 RMK AO2 SLP155
T01720144





000
SAUS46 KSGX 300853
MTRCZZ
METAR KCZZ 300852Z AUTO 05004KT 08/M04 A3003 RMK AO1 SLP141
T00831039 58005





000
SAUS46 KSGX 300852
MTRSAN
METAR KSAN 300851Z 00000KT 6SM BR SCT007 18/16 A3000 RMK AO2 SLP157
T01830156 58003





000
SAUS46 KSGX 300817
MTRSAN
SPECI KSAN 300816Z 00000KT 7SM SCT007 18/16 A3000 RMK AO2





000
SAUS46 KSGX 300753
MTRCZZ
METAR KCZZ 300752Z AUTO 03003KT 07/M03 A3003 RMK AO1 SLP146
T00671033 402720039





000
SAUS46 KSGX 300752
MTRSAN
METAR KSAN 300751Z 00000KT 8SM FEW012 18/16 A3000 RMK AO2 SLP159
T01830156 402560167





000
SAUS46 KSGX 300653
MTRCZZ
METAR KCZZ 300652Z AUTO 02003KT 09/M03 A3004 RMK AO1 SLP146
T00941033





000
SAUS46 KSGX 300652
MTRSAN
METAR KSAN 300651Z 00000KT 9SM FEW012 19/16 A3000 RMK AO2 SLP160
T01890161





000
SAUS46 KSGX 300553
MTRCZZ
METAR KCZZ 300552Z AUTO 05003KT 09/M01 A3004 RMK AO1 SLP148
T00891006 10261 20078 50000





000
SAUS46 KSGX 300552
MTRSAN
METAR KSAN 300551Z 00000KT 10SM FEW012 20/17 A3001 RMK AO2 SLP160
T02000167 10233 20200 50002





000
SAUS46 KSGX 300453
MTRCZZ
METAR KCZZ 300452Z AUTO 06006KT 10/M04 A3006 RMK AO1 SLP153
T01001039





000
SAUS46 KSGX 300453
MTRCZZ
METAR KCZZ 300452Z AUTO 06006KT 10/M04 A3006 RMK AO1 SLP153
T01001039





000
SAUS46 KSGX 300452
MTRSAN
METAR KSAN 300451Z 00000KT 10SM FEW012 21/17 A3001 RMK AO2 SLP162
T02060167





000
SAUS46 KSGX 300452
MTRSAN
METAR KSAN 300451Z 00000KT 10SM FEW012 21/17 A3001 RMK AO2 SLP162
T02060167





000
SAUS46 KSGX 300353
MTRCZZ
METAR KCZZ 300352Z AUTO 04006KT 11/M04 A3005 RMK AO1 SLP157
T01111044





000
SAUS46 KSGX 300352
MTRSAN
METAR KSAN 300351Z 00000KT 10SM FEW012 21/17 A3001 RMK AO2 SLP161
T02060172





000
SAUS46 KSGX 300253
MTRCZZ
METAR KCZZ 300252Z AUTO 05006KT 13/M01 A3004 RMK AO1 SLP159
T01331006 51014





000
SAUS46 KSGX 300252
MTRSAN
METAR KSAN 300251Z 30003KT 10SM FEW012 SCT250 21/17 A3000 RMK AO2
SLP158 T02110172 52007





000
SAUS46 KSGX 300153
MTRCZZ
METAR KCZZ 300152Z AUTO 01003KT 18/03 A3003 RMK AO1 SLP153 T01780033





000
SAUS46 KSGX 300152
MTRSAN
METAR KSAN 300151Z 32004KT 10SM FEW012 SCT250 21/17 A2999 RMK AO2
SLP156 T02110172





000
SAUS46 KSGX 300053
MTRCZZ
METAR KCZZ 300052Z AUTO 21003KT 22/04 A3001 RMK AO1 SLP143 T02220039





000
SAUS46 KSGX 300052
MTRSAN
METAR KSAN 300051Z 30005KT 10SM FEW012 SCT250 22/17 A2998 RMK AO2
SLP153 T02170172





000
SAUS46 KSGX 292353
MTRCZZ
METAR KCZZ 292352Z AUTO 07010KT 26/M07 A3000 RMK AO1 SLP135
T02611067 10272 20250 56006





000
SAUS46 KSGX 292352
MTRSAN
METAR KSAN 292351Z 28006KT 10SM FEW012 23/16 A2998 RMK AO2 SLP151
T02280161 10256 20228 50002





000
SAUS46 KSGX 292253
MTRCZZ
METAR KCZZ 292252Z AUTO 07015KT 27/M06 A3000 RMK AO1 SLP133
T02671056





000
SAUS46 KSGX 292253
MTRCZZ
METAR KCZZ 292252Z AUTO 07015KT 27/M06 A3000 RMK AO1 SLP133
T02671056





000
SAUS46 KSGX 292252
MTRSAN
METAR KSAN 292251Z 29007KT 10SM FEW012 23/17 A2999 RMK AO2 SLP153
T02330172





000
SAUS46 KSGX 292252
MTRSAN
METAR KSAN 292251Z 29007KT 10SM FEW012 23/17 A2999 RMK AO2 SLP153
T02330172





000
SAUS46 KSGX 292153
MTRCZZ
METAR KCZZ 292152Z AUTO 05013G22KT 27/M06 A3000 RMK AO1 SLP134
T02721056





000
SAUS46 KSGX 292152
MTRSAN
METAR KSAN 292151Z 29010KT 10SM FEW010 24/16 A2997 RMK AO2 SLP150
T02390161





000
SAUS46 KSGX 292053
MTRCZZ
METAR KCZZ 292052Z AUTO 07016KT 27/M06 A3002 RMK AO1 SLP140
T02671056 58017





000
SAUS46 KSGX 292052
MTRSAN
METAR KSAN 292051Z 30008KT 10SM CLR 25/13 A2997 RMK AO2 SLP149
T02500128 58023





000
SAUS46 KSGX 291953
MTRCZZ
METAR KCZZ 291952Z AUTO 06015KT 27/M06 A3004 RMK AO1 SLP149
T02671056





000
SAUS46 KSGX 291952
MTRSAN
METAR KSAN 291951Z 29007KT 10SM CLR 25/12 A2999 RMK AO2 SLP156
T02500122





000
SAUS46 KSGX 291853
MTRCZZ
METAR KCZZ 291852Z AUTO 05018KT 26/M05 A3006 RMK AO1 SLP153
T02611050





000
SAUS46 KSGX 291852
MTRSAN
METAR KSAN 291851Z 31005KT 10SM CLR 25/12 A3002 RMK AO2 SLP165
T02500117





000
SAUS46 KSGX 291753
MTRCZZ
METAR KCZZ 291752Z AUTO 07019KT 25/M05 A3007 RMK AO1 PK WND
06026/1656 SLP156 T02501050 10256 20039 58000





000
SAUS46 KSGX 291752
MTRSAN
METAR KSAN 291751Z 30004KT 10SM CLR 24/13 A3004 RMK AO2 SLP171
T02390128 10239 20167 50003





000
SAUS46 KSGX 291653
MTRCZZ
METAR KCZZ 291652Z AUTO 06017G25KT 24/M04 A3007 RMK AO1 SLP156
T02441044





000
SAUS46 KSGX 291653
MTRSAN
METAR KSAN 291651Z 29004KT 10SM CLR 22/14 A3004 RMK AO2 SLP172
T02170139





000
SAUS46 KSGX 291553
MTRCZZ
METAR KCZZ 291552Z AUTO 00000KT 16/M01 A3007 RMK AO1 SLP166
T01561011





000
SAUS46 KSGX 291552
MTRSAN
METAR KSAN 291551Z 00000KT 9SM CLR 19/14 A3004 RMK AO2 SLP173
T01940139





000
SAUS46 KSGX 291453
MTRCZZ
METAR KCZZ 291452Z AUTO 00000KT 07/M02 A3007 RMK AO1 SLP168
T00671022 53010





000
SAUS46 KSGX 291452
MTRSAN
METAR KSAN 291451Z 00000KT 10SM CLR 18/13 A3003 RMK AO2 SLP169
T01830133 53008





000
SAUS46 KSGX 291353
MTRCZZ
METAR KCZZ 291352Z AUTO 04003KT 04/M03 A3006 RMK AO1 SLP162
T00441033





000
SAUS46 KSGX 291352
MTRSAN
METAR KSAN 291351Z 00000KT 10SM FEW010 17/13 A3002 RMK AO2 SLP166
T01670128 $





000
SAUS46 KSGX 291253
MTRCZZ
METAR KCZZ 291252Z AUTO 00000KT 06/M03 A3005 RMK AO1 SLP156
T00561028





000
SAUS46 KSGX 291252
MTRSAN
METAR KSAN 291251Z 00000KT 10SM CLR 17/13 A3001 RMK AO2 SLP163
T01720133 $





000
SAUS46 KSGX 291153
MTRCZZ
METAR KCZZ 291152Z AUTO VRB03KT 05/M03 A3004 RMK AO1 SLP150
T00501033 10100 20039 56005





000
SAUS46 KSGX 291152
MTRSAN
METAR KSAN 291151Z 00000KT 10SM CLR 17/14 A3001 RMK AO2 SLP161
T01720139 10194 20172 55003 $





000
SAUS46 KSGX 291053
MTRCZZ
METAR KCZZ 291052Z AUTO 00000KT 06/M03 A3004 RMK AO1 SLP149
T00611033





000
SAUS46 KSGX 291052
MTRSAN
METAR KSAN 291051Z 00000KT 10SM CLR 18/14 A3000 RMK AO2 SLP159
T01830144 $





000
SAUS46 KSGX 290953
MTRCZZ
METAR KCZZ 290952Z AUTO 05003KT 07/M03 A3004 RMK AO1 SLP149
T00671028





000
SAUS46 KSGX 290952
MTRSAN
METAR KSAN 290951Z 00000KT 10SM CLR 18/15 A3001 RMK AO2 SLP163
T01830150 $





000
SAUS46 KSGX 290853
MTRCZZ
METAR KCZZ 290852Z AUTO 06003KT 07/M02 A3005 RMK AO1 SLP153
T00671022 58003





000
SAUS46 KSGX 290852
MTRSAN
METAR KSAN 290851Z 00000KT 10SM CLR 18/16 A3002 RMK AO2 SLP164
T01830156 58005 $





000
SAUS46 KSGX 290753
MTRCZZ
METAR KCZZ 290752Z AUTO 04003KT 06/M02 A3006 RMK AO1 SLP156
T00611022 402720039





000
SAUS46 KSGX 290752
MTRSAN
METAR KSAN 290751Z 00000KT 10SM CLR 19/16 A3002 RMK AO2 SLP166
T01890156 402330161 $





000
SAUS46 KSGX 290653
MTRCZZ
METAR KCZZ 290652Z AUTO 06004KT 09/M01 A3006 RMK AO1 SLP154
T00941011





000
SAUS46 KSGX 290652
MTRSAN
METAR KSAN 290651Z 01003KT 10SM CLR 19/16 A3003 RMK AO2 SLP169
T01940161 $





000
SAUS46 KSGX 290553
MTRCZZ
METAR KCZZ 290552Z AUTO 03005KT 10/M01 A3006 RMK AO1 SLP155
T01001006 10244 20094 50007





000
SAUS46 KSGX 290552
MTRSAN
METAR KSAN 290551Z 36004KT 10SM CLR 19/16 A3003 RMK AO2 SLP169
T01940161 10222 20194 51006 $





000
SAUS46 KSGX 290453
MTRCZZ
METAR KCZZ 290452Z AUTO 04003KT 11/00 A3007 RMK AO1 SLP156 T01110000





000
SAUS46 KSGX 290453
MTRCZZ
METAR KCZZ 290452Z AUTO 04003KT 11/00 A3007 RMK AO1 SLP156 T01110000





000
SAUS46 KSGX 290452
MTRSAN
METAR KSAN 290451Z 35003KT 10SM CLR 20/16 A3003 RMK AO2 SLP168
T02000161 $





000
SAUS46 KSGX 290353
MTRCZZ
METAR KCZZ 290352Z AUTO 03003KT 11/00 A3005 RMK AO1 SLP158 T01060000





000
SAUS46 KSGX 290352
MTRSAN
METAR KSAN 290351Z 34003KT 10SM CLR 20/16 A3002 RMK AO2 SLP165
T02000161 $





000
SAUS46 KSGX 290253
MTRCZZ
METAR KCZZ 290252Z AUTO 00000KT 14/02 A3004 RMK AO1 SLP157 T01440017
53017





000
SAUS46 KSGX 290252
MTRSAN
METAR KSAN 290251Z 33003KT 10SM CLR 21/16 A3001 RMK AO2 SLP163
T02060161 53013





000
SAUS46 KSGX 290153
MTRCZZ
METAR KCZZ 290152Z AUTO 00000KT 18/10 A3002 RMK AO1 SLP149 T01830100





000
SAUS46 KSGX 290152
MTRSAN
METAR KSAN 290151Z 36005KT 10SM FEW012 21/16 A3000 RMK AO2 SLP159
T02110161





000
SAUS46 KSGX 290053
MTRCZZ
METAR KCZZ 290052Z AUTO 09007KT 22/02 A3000 RMK AO1 SLP139 T02170017





000
SAUS46 KSGX 290052
MTRSAN
METAR KSAN 290051Z 31006KT 10SM FEW012 21/16 A2998 RMK AO2 SLP153
T02110161





000
SAUS46 KSGX 282353
MTRCZZ
METAR KCZZ 282352Z AUTO 09012KT 24/02 A2999 RMK AO1 SLP131 T02440017
10272 20244 53003





000
SAUS46 KSGX 282352
MTRSAN
METAR KSAN 282351Z 31008KT 10SM FEW012 22/16 A2998 RMK AO2 SLP150
T02220156 10233 20217 55000





000
SAUS46 KSGX 282253
MTRCZZ
METAR KCZZ 282252Z AUTO 09012KT 26/02 A2998 RMK AO1 SLP126 T02560017





000
SAUS46 KSGX 282252
MTRSAN
METAR KSAN 282251Z 29009KT 10SM FEW012 23/16 A2997 RMK AO2 SLP148
T02280156





000
SAUS46 KSGX 282153
MTRCZZ
METAR KCZZ 282152Z AUTO 08009KT 27/01 A2997 RMK AO1 SLP126 T02670011





000
SAUS46 KSGX 282152
MTRSAN
METAR KSAN 282151Z 31008KT 10SM CLR 23/15 A2997 RMK AO2 SLP148
T02330150





000
SAUS46 KSGX 282053
MTRCZZ
METAR KCZZ 282052Z AUTO 09013KT 27/01 A2998 RMK AO1 SLP126 T02670011
58015





000
SAUS46 KSGX 282052
MTRSAN
METAR KSAN 282051Z 28008KT 10SM CLR 23/14 A2998 RMK AO2 SLP150
T02280144 58017





000
SAUS46 KSGX 281953
MTRCZZ
METAR KCZZ 281952Z AUTO 07010KT 26/02 A3000 RMK AO1 SLP134 T02610017





000
SAUS46 KSGX 281952
MTRSAN
METAR KSAN 281951Z 32009KT 10SM CLR 23/16 A3000 RMK AO2 SLP159
T02280156





000
SAUS46 KSGX 281853
MTRCZZ
METAR KCZZ 281852Z AUTO 08011KT 26/01 A3002 RMK AO1 SLP141 T02560011





000
SAUS46 KSGX 281852
MTRSAN
METAR KSAN 281851Z 29008KT 10SM CLR 22/15 A3002 RMK AO2 SLP165
T02220150





000
SAUS46 KSGX 281753
MTRCZZ
METAR KCZZ 281752Z AUTO 08013KT 24/02 A3002 RMK AO1 SLP143 T02440017
10250 20039 50003





000
SAUS46 KSGX 281752
MTRSAN
METAR KSAN 281751Z 30003KT 10SM CLR 22/14 A3003 RMK AO2 SLP167
T02220139 10222 20161 50005





000
SAUS46 KSGX 281653
MTRCZZ
METAR KCZZ 281652Z AUTO 07012G18KT 23/02 A3003 RMK AO1 SLP143
T02330022





000
SAUS46 KSGX 281653
MTRCZZ
METAR KCZZ 281652Z AUTO 07012G18KT 23/02 A3003 RMK AO1 SLP143
T02330022





000
SAUS46 KSGX 281652
MTRSAN
METAR KSAN 281651Z 00000KT 10SM CLR 21/13 A3003 RMK AO2 SLP168
T02110128





000
SAUS46 KSGX 281652
MTRSAN
METAR KSAN 281651Z 00000KT 10SM CLR 21/13 A3003 RMK AO2 SLP168
T02110128





000
SAUS46 KSGX 281553
MTRCZZ
METAR KCZZ 281552Z AUTO 00000KT 17/05 A3003 RMK AO1 SLP149 T01670050





000
SAUS46 KSGX 281553
MTRCZZ
METAR KCZZ 281552Z AUTO 00000KT 17/05 A3003 RMK AO1 SLP149 T01670050





000
SAUS46 KSGX 281552
MTRSAN
METAR KSAN 281551Z 00000KT 10SM CLR 19/12 A3003 RMK AO2 SLP169
T01890122





000
SAUS46 KSGX 281552
MTRSAN
METAR KSAN 281551Z 00000KT 10SM CLR 19/12 A3003 RMK AO2 SLP169
T01890122





000
SAUS46 KSGX 281453
MTRCZZ
METAR KCZZ 281452Z AUTO 04003KT 07/02 A3002 RMK AO1 SLP152 T00720017
53011





000
SAUS46 KSGX 281452
MTRSAN
METAR KSAN 281451Z 00000KT 10SM CLR 17/13 A3001 RMK AO2 SLP162
T01720128 53012





000
SAUS46 KSGX 281353
MTRCZZ
METAR KCZZ 281352Z AUTO 02003KT 07/02 A3000 RMK AO1 SLP141 T00720017





000
SAUS46 KSGX 281352
MTRSAN
METAR KSAN 281351Z 00000KT 10SM CLR 17/13 A2999 RMK AO2 SLP154
T01670128





000
SAUS46 KSGX 281253
MTRCZZ
METAR KCZZ 281252Z AUTO 03005KT 06/01 A2999 RMK AO1 SLP139 T00560011





000
SAUS46 KSGX 281252
MTRSAN
METAR KSAN 281251Z 00000KT 10SM CLR 17/13 A2998 RMK AO2 SLP151
T01670128





000
SAUS46 KSGX 281153
MTRCZZ
METAR KCZZ 281152Z AUTO 07005KT 06/01 A2998 RMK AO1 SLP132 T00610011
10089 20039 55003





000
SAUS46 KSGX 281152
MTRSAN
METAR KSAN 281151Z 00000KT 10SM CLR 17/13 A2997 RMK AO2 SLP149
T01670128 10189 20167 55003





000
SAUS46 KSGX 281053
MTRCZZ
METAR KCZZ 281052Z AUTO 05004KT 07/01 A2998 RMK AO1 SLP129 T00720011





000
SAUS46 KSGX 281052
MTRSAN
METAR KSAN 281051Z 00000KT 10SM CLR 17/13 A2997 RMK AO2 SLP149
T01670133





000
SAUS46 KSGX 280953
MTRCZZ
METAR KCZZ 280952Z AUTO 04004KT 06/02 A2999 RMK AO1 SLP133 T00610017





000
SAUS46 KSGX 280953
MTRCZZ
METAR KCZZ 280952Z AUTO 04004KT 06/02 A2999 RMK AO1 SLP133 T00610017





000
SAUS46 KSGX 280952
MTRSAN
METAR KSAN 280951Z 00000KT 10SM CLR 17/14 A2998 RMK AO2 SLP152
T01720139





000
SAUS46 KSGX 280952
MTRSAN
METAR KSAN 280951Z 00000KT 10SM CLR 17/14 A2998 RMK AO2 SLP152
T01720139





000
SAUS46 KSGX 280853
MTRCZZ
METAR KCZZ 280852Z AUTO 35004KT 06/03 A2999 RMK AO1 SLP133 T00610028
53005





000
SAUS46 KSGX 280852
MTRSAN
METAR KSAN 280851Z 00000KT 10SM CLR 18/14 A2998 RMK AO2 SLP153
T01780144 52006





000
SAUS46 KSGX 280753
MTRCZZ
METAR KCZZ 280752Z AUTO 06005KT 07/03 A2998 RMK AO1 SLP130 T00670033
402500028





000
SAUS46 KSGX 280752
MTRSAN
METAR KSAN 280751Z 00000KT 10SM CLR 18/14 A2998 RMK AO2 SLP151
T01830144 402280161





000
SAUS46 KSGX 280653
MTRCZZ
METAR KCZZ 280652Z AUTO 04004KT 07/04 A2998 RMK AO1 SLP128 T00720044





000
SAUS46 KSGX 280652
MTRSAN
METAR KSAN 280651Z 00000KT 10SM CLR 18/14 A2997 RMK AO2 SLP149
T01830144





000
SAUS46 KSGX 280553
MTRCZZ
METAR KCZZ 280552Z AUTO 04006KT 09/05 A2997 RMK AO1 SLP128 T00890050
10211 20078 51011





000
SAUS46 KSGX 280552
MTRSAN
METAR KSAN 280551Z 00000KT 10SM CLR 19/14 A2997 RMK AO2 SLP147
T01890144 10217 20189 53012





000
SAUS46 KSGX 280453
MTRCZZ
METAR KCZZ 280452Z AUTO 03004KT 09/06 A2997 RMK AO1 SLP129 T00940056





000
SAUS46 KSGX 280453
MTRCZZ
METAR KCZZ 280452Z AUTO 03004KT 09/06 A2997 RMK AO1 SLP129 T00940056





000
SAUS46 KSGX 280452
MTRSAN
METAR KSAN 280451Z 00000KT 10SM CLR 19/14 A2995 RMK AO2 SLP143
T01940144





000
SAUS46 KSGX 280452
MTRSAN
METAR KSAN 280451Z 00000KT 10SM CLR 19/14 A2995 RMK AO2 SLP143
T01940144





000
SAUS46 KSGX 280353
MTRCZZ
METAR KCZZ 280352Z AUTO 02004KT 11/06 A2996 RMK AO1 SLP128 T01060061





000
SAUS46 KSGX 280353
MTRCZZ
METAR KCZZ 280352Z AUTO 02004KT 11/06 A2996 RMK AO1 SLP128 T01060061





000
SAUS46 KSGX 280352
MTRSAN
METAR KSAN 280351Z 00000KT 10SM FEW018 20/15 A2994 RMK AO2 SLP138
T02000150





000
SAUS46 KSGX 280352
MTRSAN
METAR KSAN 280351Z 00000KT 10SM FEW018 20/15 A2994 RMK AO2 SLP138
T02000150





000
SAUS46 KSGX 280253
MTRCZZ
METAR KCZZ 280252Z AUTO 04004KT 12/07 A2994 RMK AO1 SLP126 T01170067
51015





000
SAUS46 KSGX 280252
MTRSAN
METAR KSAN 280251Z 00000KT 10SM FEW018 20/14 A2993 RMK AO2 SLP135
T02000144 53008





000
SAUS46 KSGX 280153
MTRCZZ
METAR KCZZ 280152Z AUTO 18004KT 16/09 A2993 RMK AO1 SLP119 T01610094





000
SAUS46 KSGX 280153
MTRCZZ
METAR KCZZ 280152Z AUTO 18004KT 16/09 A2993 RMK AO1 SLP119 T01610094





000
SAUS46 KSGX 280152
MTRSAN
METAR KSAN 280151Z 29003KT 10SM FEW018 21/14 A2992 RMK AO2 SLP131
T02060144





000
SAUS46 KSGX 280152
MTRSAN
METAR KSAN 280151Z 29003KT 10SM FEW018 21/14 A2992 RMK AO2 SLP131
T02060144





000
SAUS46 KSGX 280053
MTRCZZ
METAR KCZZ 280052Z AUTO 21010KT 18/09 A2991 RMK AO1 SLP113 T01780094





000
SAUS46 KSGX 280052
MTRSAN
METAR KSAN 280051Z 28004KT 10SM FEW018 21/14 A2992 RMK AO2 SLP130
T02110144





000
SAUS46 KSGX 272353
MTRCZZ
METAR KCZZ 272352Z AUTO 22014KT 21/09 A2989 RMK AO1 SLP101 T02110089
10250 20211 53004





000
SAUS46 KSGX 272352
MTRSAN
METAR KSAN 272351Z 31007KT 10SM CLR 22/14 A2991 RMK AO2 SLP127
T02170139 10228 20206 53002





000
SAUS46 KSGX 272253
MTRCZZ
METAR KCZZ 272252Z AUTO 21012KT 23/07 A2988 RMK AO1 SLP094 T02330072





000
SAUS46 KSGX 272252
MTRSAN
METAR KSAN 272251Z 29010KT 10SM CLR 22/14 A2990 RMK AO2 SLP126
T02220139





000
SAUS46 KSGX 272153
MTRCZZ
METAR KCZZ 272152Z AUTO 22011KT 23/06 A2988 RMK AO1 SLP094 T02330056





000
SAUS46 KSGX 272152
MTRSAN
METAR KSAN 272151Z 26008KT 10SM CLR 22/13 A2990 RMK AO2 SLP125
T02220128





000
SAUS46 KSGX 272053
MTRCZZ
METAR KCZZ 272052Z AUTO 22012KT 24/05 A2988 RMK AO1 SLP092 T02440050
57013





000
SAUS46 KSGX 272052
MTRSAN
METAR KSAN 272051Z 28007KT 10SM CLR 23/12 A2990 RMK AO2 SLP125
T02280122 58017





000
SAUS46 KSGX 271953
MTRCZZ
METAR KCZZ 271952Z AUTO 23011KT 24/03 A2989 RMK AO1 SLP096 T02390033





000
SAUS46 KSGX 271952
MTRSAN
METAR KSAN 271951Z 28008KT 10SM CLR 22/12 A2992 RMK AO2 SLP130
T02220122





000
SAUS46 KSGX 271853
MTRCZZ
METAR KCZZ 271852Z AUTO 22010KT 23/01 A2991 RMK AO1 SLP104 T02330006





000
SAUS46 KSGX 271852
MTRSAN
METAR KSAN 271851Z 19004KT 10SM CLR 22/10 A2994 RMK AO2 SLP137
T02170100





    US Dept of Commerce
    National Oceanic and Atmospheric Administration
    National Weather Service
    1325 East West Highway
    Silver Spring, MD 20910
    Page Author: NWS Internet Services Team
Disclaimer
Information Quality
Credits
Glossary
Privacy Policy
Freedom of Information Act (FOIA)
About Us
Career Opportunities